A. Steve Crowley — WDF3329 — position and weather

sailwx.info

Track history (hours):
 
Tides and Currents Weather Stations Pressure Air Temp Water Temp Dewpoint Dewpoint Depression Visibility Wind Speed Wind Dir Waves Ship Positions

A. Steve Crowley

Owner: Marquette Transportation Co. LLC, Paducah, KY. More information available from US FCC via Universal Licensing System and Coast Guard Vessel Documentation Center.

Last reported at 2018-May-11 06:08 UTC. Time now 2018-May-26 14:04 UTC.
Position N 32°57' W 091°05'.
Warning: this ship's position is 15 days out of date.

Length 50 m; draft 2.7 m.

Type: Towing. MMSI: 367438630.

Date/timePositionNaut miles runAvg speedWind from/ knotsBaromVisibWave heightAir tempDewpointWater temp
2018-May-11 06:08N 32°57' W 091°05'1 4.3
2018-May-11 05:51N 32°56' W 091°04'2 4.4
2018-May-11 05:23N 32°54' W 091°04'3 4.7
2018-May-11 04:45N 32°52' W 091°07'1 4.3
2018-May-11 04:30N 32°51' W 091°07'2 4.4
2018-May-11 04:00N 32°49' W 091°09'2 4.7
2018-May-11 03:30N 32°47' W 091°09'2 4.6
2018-May-11 03:00N 32°45' W 091°09'4 4.2
2018-May-11 01:59N 32°44' W 091°04'2 3.6
2018-May-11 01:30N 32°42' W 091°04'2 4.5
2018-May-11 01:00N 32°41' W 091°06'2 3.1
2018-May-11 00:29N 32°40' W 091°08'2 4.7
2018-May-11 00:00N 32°38' W 091°09'2 4.8
2018-May-10 23:31N 32°36' W 091°08'2 4.6
2018-May-10 23:00N 32°34' W 091°06'2 4.5
2018-May-10 22:30N 32°32' W 091°06'2 4.9
2018-May-10 22:00N 32°30' W 091°07'2 4.2
2018-May-10 21:30N 32°28' W 091°06'1 3.0
2018-May-10 21:00N 32°27' W 091°05'2 4.6
2018-May-10 20:30N 32°26' W 091°02'2 4.6
2018-May-10 20:01N 32°25' W 090°60'2 4.1
2018-May-10 19:30N 32°23' W 091°00'2 3.4
2018-May-10 19:00N 32°21' W 090°59'2 4.5
2018-May-10 18:30N 32°21' W 090°57'2 4.2
2018-May-10 18:00N 32°20' W 090°54'2 3.4
2018-May-10 17:30N 32°19' W 090°55'2 3.8
2018-May-10 17:00N 32°17' W 090°56'2 4.3
2018-May-10 16:30N 32°16' W 090°58'2 4.5
2018-May-10 16:00N 32°14' W 090°59'2 4.7
2018-May-10 15:30N 32°11' W 090°60'2 4.0
2018-May-10 15:00N 32°09' W 091°00'2 4.4
2018-May-10 14:30N 32°07' W 091°01'2 3.7
2018-May-10 14:00N 32°08' W 091°03'1 2.2
2018-May-10 13:30N 32°08' W 091°05'2 3.6
2018-May-10 13:00N 32°07' W 091°07'3 4.3
2018-May-10 12:18N 32°05' W 091°05'2 4.6
2018-May-10 11:54N 32°03' W 091°03'2 4.5
2018-May-10 11:30N 32°02' W 091°04'2 4.8
2018-May-10 11:00N 31°60' W 091°06'2 4.0
2018-May-10 10:28N 31°59' W 091°08'2 4.3
2018-May-10 09:59N 31°59' W 091°11'2 3.6
2018-May-10 09:30N 31°57' W 091°11'4 4.3
2018-May-10 08:33N 31°53' W 091°13'0 3.6
2018-May-10 08:29N 31°53' W 091°13'67 3.2
2018-May-09 11:41N 30°48' W 091°33'1 4.4
2018-May-09 11:29N 30°47' W 091°33'22 1.0
2018-May-08 13:41N 30°31' W 091°16'0 0.0
2018-May-08 13:29N 30°31' W 091°16'0 0.0
2018-May-08 12:59N 30°31' W 091°16'0 0.0
2018-May-08 12:23N 30°31' W 091°16'3 2.0
2018-May-08 11:04N 30°31' W 091°13'1 4.4
2018-May-08 10:46N 30°30' W 091°12'2 4.5
2018-May-08 10:25N 30°28' W 091°12'  
2018-May-05 08:23N 30°03' W 090°36'  
2018-May-02 17:05N 31°60' W 091°06'110.1
2018-May-02 16:58N 32°01' W 091°05'4 8.4
2018-May-02 16:27N 32°05' W 091°05'3 7.1
2018-May-02 16:00N 32°08' W 091°06'4 8.9
2018-May-02 15:30N 32°08' W 091°00'510.1
2018-May-02 15:00N 32°13' W 090°59'5 9.3
2018-May-02 14:30N 32°17' W 090°56'3 7.1
2018-May-02 14:00N 32°21' W 090°55'2 4.2
2018-May-02 13:30N 32°21' W 090°58'0 0.2
2018-May-02 13:00N 32°21' W 090°58'0 0.0
2018-May-02 12:30N 32°21' W 090°58'0 0.0
2018-May-02 12:00N 32°21' W 090°58'0 0.0
2018-May-02 11:30N 32°21' W 090°58'0 0.0
2018-May-02 11:00N 32°21' W 090°58'0 0.0
2018-May-02 10:30N 32°21' W 090°58'0 0.0
2018-May-02 10:00N 32°21' W 090°58'0 0.0
2018-May-02 09:30N 32°21' W 090°58'0 0.0
2018-May-02 09:00N 32°21' W 090°58'0 0.0
2018-May-02 08:30N 32°21' W 090°58'0 0.0
2018-May-02 08:00N 32°21' W 090°58'0 0.0
2018-May-02 07:30N 32°21' W 090°58'0 0.0
2018-May-02 07:00N 32°21' W 090°58'0 0.2
2018-May-02 06:30N 32°21' W 090°58'1 1.2
2018-May-02 06:00N 32°21' W 090°58'3 6.8
2018-May-02 05:30N 32°24' W 090°60'4 7.3
2018-May-02 05:00N 32°26' W 091°03'4 8.9
2018-May-02 04:30N 32°29' W 091°07'4 8.9
2018-May-02 04:00N 32°34' W 091°06'5 9.2
2018-May-02 03:30N 32°37' W 091°09'8 8.1
2018-May-02 02:35N 32°43' W 091°03'  
Track history (hours):
 
Tides and Currents Weather Stations Pressure Air Temp Water Temp Dewpoint Dewpoint Depression Visibility Wind Speed Wind Dir Waves Ship Positions

A. Steve Crowley

Owner: Marquette Transportation Co. LLC, Paducah, KY. More information available from US FCC via Universal Licensing System and Coast Guard Vessel Documentation Center.

Last reported at 2018-May-11 06:08 UTC. Time now 2018-May-26 14:04 UTC.
Position N 32°57' W 091°05'.
Warning: this ship's position is 15 days out of date.

Length 50 m; draft 2.7 m.

Type: Towing. MMSI: 367438630.

Date/timePositionNaut miles runAvg speedWind from/ knotsBaromVisibWave heightAir tempDewpointWater temp
2018-May-11 06:08N 32°57' W 091°05'1 4.3
2018-May-11 05:51N 32°56' W 091°04'2 4.4
2018-May-11 05:23N 32°54' W 091°04'3 4.7
2018-May-11 04:45N 32°52' W 091°07'1 4.3
2018-May-11 04:30N 32°51' W 091°07'2 4.4
2018-May-11 04:00N 32°49' W 091°09'2 4.7
2018-May-11 03:30N 32°47' W 091°09'2 4.6
2018-May-11 03:00N 32°45' W 091°09'4 4.2
2018-May-11 01:59N 32°44' W 091°04'2 3.6
2018-May-11 01:30N 32°42' W 091°04'2 4.5
2018-May-11 01:00N 32°41' W 091°06'2 3.1
2018-May-11 00:29N 32°40' W 091°08'2 4.7
2018-May-11 00:00N 32°38' W 091°09'2 4.8
2018-May-10 23:31N 32°36' W 091°08'2 4.6
2018-May-10 23:00N 32°34' W 091°06'2 4.5
2018-May-10 22:30N 32°32' W 091°06'2 4.9
2018-May-10 22:00N 32°30' W 091°07'2 4.2
2018-May-10 21:30N 32°28' W 091°06'1 3.0
2018-May-10 21:00N 32°27' W 091°05'2 4.6
2018-May-10 20:30N 32°26' W 091°02'2 4.6
2018-May-10 20:01N 32°25' W 090°60'2 4.1
2018-May-10 19:30N 32°23' W 091°00'2 3.4
2018-May-10 19:00N 32°21' W 090°59'2 4.5
2018-May-10 18:30N 32°21' W 090°57'2 4.2
2018-May-10 18:00N 32°20' W 090°54'2 3.4
2018-May-10 17:30N 32°19' W 090°55'2 3.8
2018-May-10 17:00N 32°17' W 090°56'2 4.3
2018-May-10 16:30N 32°16' W 090°58'2 4.5
2018-May-10 16:00N 32°14' W 090°59'2 4.7
2018-May-10 15:30N 32°11' W 090°60'2 4.0
2018-May-10 15:00N 32°09' W 091°00'2 4.4
2018-May-10 14:30N 32°07' W 091°01'2 3.7
2018-May-10 14:00N 32°08' W 091°03'1 2.2
2018-May-10 13:30N 32°08' W 091°05'2 3.6
2018-May-10 13:00N 32°07' W 091°07'3 4.3
2018-May-10 12:18N 32°05' W 091°05'2 4.6
2018-May-10 11:54N 32°03' W 091°03'2 4.5
2018-May-10 11:30N 32°02' W 091°04'2 4.8
2018-May-10 11:00N 31°60' W 091°06'2 4.0
2018-May-10 10:28N 31°59' W 091°08'2 4.3
2018-May-10 09:59N 31°59' W 091°11'2 3.6
2018-May-10 09:30N 31°57' W 091°11'4 4.3
2018-May-10 08:33N 31°53' W 091°13'0 3.6
2018-May-10 08:29N 31°53' W 091°13'67 3.2
2018-May-09 11:41N 30°48' W 091°33'1 4.4
2018-May-09 11:29N 30°47' W 091°33'22 1.0
2018-May-08 13:41N 30°31' W 091°16'0 0.0
2018-May-08 13:29N 30°31' W 091°16'0 0.0
2018-May-08 12:59N 30°31' W 091°16'0 0.0
2018-May-08 12:23N 30°31' W 091°16'3 2.0
2018-May-08 11:04N 30°31' W 091°13'1 4.4
2018-May-08 10:46N 30°30' W 091°12'2 4.5
2018-May-08 10:25N 30°28' W 091°12'  
2018-May-05 08:23N 30°03' W 090°36'  
2018-May-02 17:05N 31°60' W 091°06'110.1
2018-May-02 16:58N 32°01' W 091°05'4 8.4
2018-May-02 16:27N 32°05' W 091°05'3 7.1
2018-May-02 16:00N 32°08' W 091°06'4 8.9
2018-May-02 15:30N 32°08' W 091°00'510.1
2018-May-02 15:00N 32°13' W 090°59'5 9.3
2018-May-02 14:30N 32°17' W 090°56'3 7.1
2018-May-02 14:00N 32°21' W 090°55'2 4.2
2018-May-02 13:30N 32°21' W 090°58'0 0.2
2018-May-02 13:00N 32°21' W 090°58'0 0.0
2018-May-02 12:30N 32°21' W 090°58'0 0.0
2018-May-02 12:00N 32°21' W 090°58'0 0.0
2018-May-02 11:30N 32°21' W 090°58'0 0.0
2018-May-02 11:00N 32°21' W 090°58'0 0.0
2018-May-02 10:30N 32°21' W 090°58'0 0.0
2018-May-02 10:00N 32°21' W 090°58'0 0.0
2018-May-02 09:30N 32°21' W 090°58'0 0.0
2018-May-02 09:00N 32°21' W 090°58'0 0.0
2018-May-02 08:30N 32°21' W 090°58'0 0.0
2018-May-02 08:00N 32°21' W 090°58'0 0.0
2018-May-02 07:30N 32°21' W 090°58'0 0.0
2018-May-02 07:00N 32°21' W 090°58'0 0.2
2018-May-02 06:30N 32°21' W 090°58'1 1.2
2018-May-02 06:00N 32°21' W 090°58'3 6.8
2018-May-02 05:30N 32°24' W 090°60'4 7.3
2018-May-02 05:00N 32°26' W 091°03'4 8.9
2018-May-02 04:30N 32°29' W 091°07'4 8.9
2018-May-02 04:00N 32°34' W 091°06'5 9.2
2018-May-02 03:30N 32°37' W 091°09'8 8.1
2018-May-02 02:35N 32°43' W 091°03'  

Dump ship's entire track history